Time;durP1;ratioP1;P1;durP2;ratioP2;P2;SDS_P1;SDS_P2;PMS_P1;PMS_P2;Temp;Humidity;BMP_temperature;BMP_pressure;BME280_temperature;BME280_humidity;BME280_pressure;Samples;Min_cycle;Max_cycle;Signal;HPM_P1;HPM_P2
2022/01/03 13:07:46;;;;;;;23.00;3.63;;;20.50;55.00;;;;;;5129553;27;1195128;-70
2022/01/03 13:10:16;;;;;;;31.63;4.55;;;20.50;56.70;;;;;;5149529;27;20156;-68
2022/01/03 13:12:43;;;;;;;26.00;4.10;;;20.50;56.70;;;;;;5150894;27;20043;-70
2022/01/03 13:15:08;;;;;;;23.00;4.28;;;20.50;57.00;;;;;;5152623;27;20046;-70
2022/01/03 13:17:34;;;;;;;22.23;4.32;;;20.50;57.00;;;;;;5154041;27;20042;-72
2022/01/03 13:20:00;;;;;;;18.05;3.88;;;20.50;57.00;;;;;;5152217;27;20031;-72
2022/01/03 13:22:26;;;;;;;20.08;3.95;;;20.50;56.80;;;;;;5148654;27;20073;-71
2022/01/03 13:24:58;;;;;;;14.73;3.13;;;20.50;56.60;;;;;;5127252;27;20557;-71
2022/01/03 13:27:27;;;;;;;24.83;3.95;;;20.40;56.10;;;;;;5150204;27;20102;-75
2022/01/03 13:29:57;;;;;;;23.75;3.83;;;20.40;56.10;;;;;;5133720;27;20043;-74
2022/01/03 13:32:29;;;;;;;19.58;4.55;;;20.40;55.80;;;;;;5133430;27;20049;-75
2022/01/03 13:34:56;;;;;;;18.27;3.97;;;20.40;55.50;;;;;;5146779;27;20039;-74
2022/01/03 13:37:24;;;;;;;22.45;4.25;;;20.40;55.60;;;;;;5132965;27;20541;-71
2022/01/03 13:39:53;;;;;;;15.77;3.80;;;20.40;55.40;;;;;;5158536;27;20459;-70
2022/01/03 13:42:28;;;;;;;18.25;3.90;;;20.30;55.30;;;;;;5129487;27;20045;-73
2022/01/03 13:50:09;;;;;;;17.10;3.67;;;20.40;55.00;;;;;;5147853;27;20046;-70
2022/01/03 13:52:40;;;;;;;20.33;3.90;;;20.30;54.80;;;;;;5133516;27;20042;-72
2022/01/03 13:55:21;;;;;;;17.42;3.63;;;20.30;54.80;;;;;;5129826;27;20513;-70
2022/01/03 13:58:00;;;;;;;23.67;4.35;;;20.30;54.50;;;;;;5129091;27;20034;-71
2022/01/03 14:00:26;;;;;;;17.23;3.80;;;20.30;54.70;;;;;;5133009;27;20039;-72
2022/01/03 14:02:53;;;;;;;22.52;3.95;;;20.30;54.80;;;;;;5116153;27;20550;-76
2022/01/03 14:05:19;;;;;;;16.45;3.25;;;20.30;54.80;;;;;;5151483;27;20130;-71
2022/01/03 14:08:14;;;;;;;15.65;3.72;;;20.30;54.80;;;;;;5133398;27;20038;-72
2022/01/03 14:10:46;;;;;;;21.98;4.45;;;20.30;54.20;;;;;;5131512;27;20135;-75
2022/01/03 14:13:14;;;;;;;17.85;4.32;;;20.30;54.70;;;;;;5153419;27;20038;-76
2022/01/03 14:15:59;;;;;;;;;;;20.20;54.70;;;;;;5132464;27;20050;-71
2022/01/03 14:18:55;;;;;;;20.42;4.07;;;20.20;54.60;;;;;;5124750;27;20343;-74
2022/01/03 14:21:26;;;;;;;20.38;3.95;;;20.20;55.20;;;;;;5120341;27;20079;-71
2022/01/03 14:23:54;;;;;;;20.25;4.20;;;20.20;55.50;;;;;;5117217;27;20043;-71
2022/01/03 14:26:22;;;;;;;16.35;3.88;;;20.20;55.50;;;;;;5136277;27;20038;-73
2022/01/03 14:28:49;;;;;;;21.73;3.80;;;20.20;55.50;;;;;;5115317;27;20047;-72
2022/01/03 14:31:15;;;;;;;18.77;4.43;;;20.20;55.90;;;;;;5132150;27;20035;-71
2022/01/03 14:33:41;;;;;;;15.32;3.58;;;20.20;56.10;;;;;;5131285;27;20039;-69
2022/01/03 14:36:18;;;;;;;20.98;3.67;;;20.20;56.10;;;;;;5129196;27;21556;-71
2022/01/03 14:38:46;;;;;;;20.02;3.78;;;20.20;56.10;;;;;;5112126;27;20039;-71
2022/01/03 14:41:26;;;;;;;20.63;3.60;;;20.20;56.30;;;;;;5138014;27;20481;-70
2022/01/03 14:44:02;;;;;;;16.00;3.78;;;20.30;56.50;;;;;;5093533;28;20524;-71
2022/01/03 14:46:37;;;;;;;15.98;3.75;;;20.30;56.60;;;;;;5108810;27;20548;-70
2022/01/03 14:49:08;;;;;;;17.58;3.75;;;20.30;56.60;;;;;;5127808;27;20039;-70
2022/01/03 14:51:43;;;;;;;17.65;3.42;;;20.30;56.70;;;;;;5125651;27;20087;-70
2022/01/03 14:54:31;;;;;;;16.42;3.08;;;20.40;56.70;;;;;;5106897;27;20145;-70
2022/01/03 14:57:13;;;;;;;13.75;3.15;;;20.40;56.50;;;;;;5126966;27;20047;-71
2022/01/03 14:59:38;;;;;;;19.00;3.60;;;20.40;56.70;;;;;;5138085;27;20083;-73
2022/01/03 15:02:04;;;;;;;15.90;3.63;;;20.40;56.70;;;;;;5135710;27;20039;-70
2022/01/03 15:04:29;;;;;;;19.77;3.42;;;20.40;56.70;;;;;;5137651;27;20039;-71
2022/01/03 15:06:55;;;;;;;12.55;3.20;;;20.40;56.70;;;;;;5118205;27;20134;-71
2022/01/03 15:09:22;;;;;;;16.70;3.28;;;20.40;56.70;;;;;;5133937;27;20063;-72
2022/01/03 15:11:48;;;;;;;15.75;3.58;;;20.40;56.70;;;;;;5113702;27;20039;-72
2022/01/03 15:14:15;;;;;;;17.35;3.42;;;20.40;56.70;;;;;;5118027;27;20087;-71
2022/01/03 15:16:41;;;;;;;21.10;4.00;;;20.40;56.70;;;;;;5117732;27;20050;-74
2022/01/03 15:19:07;;;;;;;13.57;3.05;;;20.40;56.60;;;;;;5136620;27;20035;-71
2022/01/03 15:21:32;;;;;;;13.30;2.90;;;20.40;56.50;;;;;;5116507;27;20035;-72
2022/01/03 15:23:58;;;;;;;13.50;3.58;;;20.40;56.50;;;;;;5117937;27;20409;-74
2022/01/03 15:26:24;;;;;;;13.70;3.28;;;20.40;56.50;;;;;;5114155;27;20046;-74
2022/01/03 15:28:52;;;;;;;16.80;3.60;;;20.40;56.40;;;;;;5112967;27;20039;-72
2022/01/03 15:31:18;;;;;;;13.65;3.47;;;20.40;56.40;;;;;;5114453;27;20054;-71
2022/01/03 15:33:43;;;;;;;12.70;3.00;;;20.40;56.40;;;;;;5138345;27;20058;-72
2022/01/03 15:36:09;;;;;;;19.27;3.65;;;20.40;57.10;;;;;;5130657;27;20031;-71
2022/01/03 15:38:35;;;;;;;27.90;3.70;;;20.40;56.30;;;;;;5138602;27;20096;-72
2022/01/03 15:41:01;;;;;;;15.55;3.40;;;20.30;56.20;;;;;;5129604;27;20046;-71
2022/01/03 15:43:27;;;;;;;20.10;3.92;;;20.30;56.10;;;;;;5099617;27;20023;-71
2022/01/03 15:45:55;;;;;;;14.88;3.33;;;20.40;56.10;;;;;;5131335;27;20050;-75
2022/01/03 15:48:21;;;;;;;17.05;3.50;;;20.40;56.00;;;;;;5127425;27;20031;-75
2022/01/03 15:50:46;;;;;;;16.70;3.25;;;20.40;56.00;;;;;;5128893;27;20049;-72
2022/01/03 15:53:12;;;;;;;17.60;3.53;;;20.40;55.90;;;;;;5118731;27;20050;-71
2022/01/03 15:55:39;;;;;;;14.05;3.03;;;20.40;55.90;;;;;;5133059;27;20045;-73
2022/01/03 15:58:06;;;;;;;14.00;2.95;;;20.40;55.90;;;;;;5129283;27;20031;-70
2022/01/03 16:00:31;;;;;;;14.70;3.13;;;20.40;55.90;;;;;;5138558;27;20035;-72
2022/01/03 16:02:57;;;;;;;14.95;2.95;;;20.40;55.90;;;;;;5112230;27;20039;-74
2022/01/03 16:05:23;;;;;;;23.75;2.90;;;20.40;55.80;;;;;;5112732;27;20626;-73
2022/01/03 16:07:49;;;;;;;14.90;3.30;;;20.40;55.70;;;;;;5113421;27;20066;-73
2022/01/03 16:10:15;;;;;;;20.30;3.67;;;20.40;55.60;;;;;;5126165;27;20031;-72
2022/01/03 16:12:42;;;;;;;18.58;3.25;;;20.40;55.60;;;;;;5119999;27;20427;-70
2022/01/03 16:15:09;;;;;;;14.27;3.08;;;20.40;55.60;;;;;;5131909;27;20058;-71
2022/01/03 16:17:35;;;;;;;14.77;2.80;;;20.40;55.60;;;;;;5119541;27;20123;-70
2022/01/03 16:20:02;;;;;;;11.68;3.60;;;20.40;55.60;;;;;;5136514;27;20070;-70
2022/01/03 16:22:28;;;;;;;13.90;3.17;;;20.40;55.50;;;;;;5121580;27;20035;-70
2022/01/03 16:24:54;;;;;;;12.23;3.00;;;20.40;55.50;;;;;;5133384;27;20042;-71
2022/01/03 16:27:19;;;;;;;12.82;2.80;;;20.40;55.50;;;;;;5114831;27;20046;-71
2022/01/03 16:29:45;;;;;;;13.27;2.85;;;20.30;55.40;;;;;;5131789;27;20035;-70
2022/01/03 16:32:10;;;;;;;10.15;2.90;;;20.30;55.40;;;;;;5129147;27;20080;-72
2022/01/03 16:34:36;;;;;;;12.13;3.05;;;20.30;55.70;;;;;;5128790;27;20088;-68
2022/01/03 16:37:07;;;;;;;12.43;3.08;;;20.30;55.30;;;;;;5112103;27;20043;-75
2022/01/03 16:39:33;;;;;;;17.25;2.92;;;20.30;55.30;;;;;;5122245;27;20050;-68
2022/01/03 16:41:59;;;;;;;11.00;2.58;;;20.30;55.50;;;;;;5121327;27;20043;-70
2022/01/03 16:44:25;;;;;;;12.88;3.72;;;20.30;55.50;;;;;;5122670;27;20118;-69
2022/01/03 16:46:51;;;;;;;15.63;3.42;;;20.30;55.50;;;;;;5125077;27;20126;-70
2022/01/03 16:49:17;;;;;;;13.23;3.00;;;20.20;55.50;;;;;;5104244;27;20650;-70
2022/01/03 16:51:43;;;;;;;7.47;2.80;;;20.30;56.20;;;;;;5123870;27;20046;-70
2022/01/03 16:54:09;;;;;;;20.52;5.22;;;20.30;56.90;;;;;;5123312;27;20023;-71
2022/01/03 16:56:35;;;;;;;112.53;29.73;;;20.20;57.50;;;;;;5105507;27;20142;-71
2022/01/03 16:59:00;;;;;;;117.35;32.65;;;20.20;59.20;;;;;;5106371;27;20039;-69
2022/01/03 17:01:27;;;;;;;92.13;24.33;;;20.20;59.20;;;;;;5097419;27;21006;-70
2022/01/03 17:03:53;;;;;;;81.95;22.08;;;20.30;59.50;;;;;;5125737;27;20085;-71
2022/01/03 17:06:19;;;;;;;76.82;19.15;;;20.20;59.70;;;;;;5118585;27;20549;-70
2022/01/03 17:08:45;;;;;;;73.85;19.40;;;20.30;59.90;;;;;;5105704;27;20043;-73
2022/01/03 17:11:13;;;;;;;66.53;16.08;;;20.30;60.30;;;;;;5119451;27;20041;-69
2022/01/03 17:13:43;;;;;;;68.30;15.98;;;20.30;60.60;;;;;;5121583;27;20031;-71
2022/01/03 17:16:08;;;;;;;56.95;15.32;;;20.30;60.70;;;;;;5121327;27;20035;-71
2022/01/03 17:18:34;;;;;;;57.42;14.40;;;20.30;60.70;;;;;;5104721;27;20058;-71
2022/01/03 17:21:00;;;;;;;48.83;12.45;;;20.30;60.60;;;;;;5121838;27;20134;-71
2022/01/03 17:23:26;;;;;;;50.88;12.73;;;20.30;60.50;;;;;;5121023;27;20452;-72
2022/01/03 17:25:51;;;;;;;46.33;12.25;;;20.30;60.40;;;;;;5122121;27;20127;-68
2022/01/03 17:28:19;;;;;;;45.55;12.27;;;20.30;60.30;;;;;;5120379;27;20063;-71
2022/01/03 17:30:46;;;;;;;47.42;11.27;;;20.30;60.30;;;;;;5120496;27;20047;-70
2022/01/03 17:33:12;;;;;;;44.25;11.48;;;20.30;60.10;;;;;;5104905;27;20070;-70
2022/01/03 17:35:38;;;;;;;41.22;11.63;;;20.30;60.10;;;;;;5121458;27;20055;-71
2022/01/03 17:38:05;;;;;;;42.35;10.85;;;20.30;60.00;;;;;;5104517;27;20051;-69
2022/01/03 17:40:31;;;;;;;42.88;11.85;;;20.30;60.00;;;;;;5121406;27;20081;-74
2022/01/03 17:42:57;;;;;;;42.30;9.95;;;20.30;59.90;;;;;;5105103;27;20192;-69
2022/01/03 17:45:24;;;;;;;41.40;10.23;;;20.30;59.80;;;;;;5104521;27;20035;-70
2022/01/03 17:47:51;;;;;;;37.45;9.88;;;20.30;59.80;;;;;;5118643;27;20070;-72
2022/01/03 17:50:16;;;;;;;34.95;9.30;;;20.30;59.70;;;;;;5121835;27;20387;-70
2022/01/03 17:52:42;;;;;;;38.58;9.75;;;20.30;59.70;;;;;;5130911;27;20042;-70
2022/01/03 17:55:09;;;;;;;43.13;9.70;;;20.30;59.50;;;;;;5113322;27;20039;-70
2022/01/03 17:57:35;;;;;;;36.10;8.95;;;20.30;59.40;;;;;;5121319;27;20039;-74
2022/01/03 18:00:04;;;;;;;35.58;9.07;;;20.30;59.30;;;;;;5128151;27;20038;-75
2022/01/03 18:02:29;;;;;;;33.85;8.75;;;20.30;59.20;;;;;;5127234;27;20398;-75
2022/01/03 18:04:55;;;;;;;32.75;8.50;;;20.30;59.20;;;;;;5106257;27;20050;-75
2022/01/03 18:07:22;;;;;;;29.00;8.07;;;20.30;59.20;;;;;;5128668;27;20128;-78
2022/01/03 18:09:51;;;;;;;32.30;8.52;;;20.30;59.30;;;;;;5127870;27;20047;-71
2022/01/03 18:12:16;;;;;;;35.22;7.78;;;20.30;59.40;;;;;;5119373;27;20066;-75
2022/01/03 18:14:42;;;;;;;33.90;7.95;;;20.30;59.50;;;;;;5111263;27;20151;-72
2022/01/03 18:17:08;;;;;;;35.25;8.07;;;20.30;59.50;;;;;;5108282;27;20066;-72
2022/01/03 18:19:33;;;;;;;31.60;7.90;;;20.30;59.50;;;;;;5108957;27;20035;-74
2022/01/03 18:21:59;;;;;;;24.38;7.07;;;20.30;59.50;;;;;;5109054;27;20035;-72
2022/01/03 18:24:24;;;;;;;27.55;8.10;;;20.30;59.50;;;;;;5125798;27;20029;-72
2022/01/03 18:26:52;;;;;;;25.80;6.65;;;20.30;59.50;;;;;;5127582;27;20053;-74
2022/01/03 18:29:18;;;;;;;26.83;6.82;;;20.30;59.40;;;;;;5121302;27;20071;-72
2022/01/03 18:31:43;;;;;;;26.92;7.53;;;20.30;59.40;;;;;;5126546;27;20610;-71
2022/01/03 18:34:09;;;;;;;23.15;7.03;;;20.20;59.30;;;;;;5124931;27;20031;-73
2022/01/03 18:36:35;;;;;;;27.80;7.30;;;20.20;59.20;;;;;;5127285;27;20034;-74
2022/01/03 18:39:03;;;;;;;24.15;6.97;;;20.20;59.10;;;;;;5122950;27;20035;-75
2022/01/03 18:41:28;;;;;;;23.80;6.15;;;20.20;59.00;;;;;;5125522;27;20027;-69
2022/01/03 18:43:54;;;;;;;25.98;6.38;;;20.30;59.00;;;;;;5110476;27;20049;-70
2022/01/03 18:46:20;;;;;;;26.27;6.57;;;20.20;58.80;;;;;;5108808;27;20038;-72
2022/01/03 18:48:45;;;;;;;24.65;6.78;;;20.30;58.80;;;;;;5127549;27;20111;-71
2022/01/03 18:51:11;;;;;;;22.50;5.80;;;20.20;59.00;;;;;;5128118;27;20039;-70
2022/01/03 18:53:36;;;;;;;21.65;5.78;;;20.20;58.60;;;;;;5112770;27;20048;-72
2022/01/03 18:56:03;;;;;;;26.08;5.85;;;20.20;58.40;;;;;;5103772;27;20039;-76
2022/01/03 18:58:28;;;;;;;23.75;5.65;;;20.20;58.30;;;;;;5126931;27;20039;-71
2022/01/03 19:00:54;;;;;;;27.05;5.50;;;20.20;58.20;;;;;;5127590;27;20088;-73
2022/01/03 19:03:20;;;;;;;16.77;4.72;;;20.20;58.20;;;;;;5125564;27;20038;-72
2022/01/03 19:05:45;;;;;;;17.33;5.03;;;20.20;58.10;;;;;;5125726;27;20134;-71
2022/01/03 19:08:11;;;;;;;21.52;5.55;;;20.20;58.10;;;;;;5125534;27;20047;-72
2022/01/03 19:10:36;;;;;;;21.75;5.32;;;20.20;58.00;;;;;;5127080;27;20122;-70
2022/01/03 19:13:03;;;;;;;18.85;5.72;;;20.20;58.00;;;;;;5108540;27;20043;-72
2022/01/03 19:15:30;;;;;;;20.27;4.85;;;20.20;58.00;;;;;;5127432;27;20035;-72
2022/01/03 19:17:56;;;;;;;21.35;5.15;;;20.20;58.00;;;;;;5125648;27;20062;-71
2022/01/03 19:20:21;;;;;;;18.75;4.50;;;20.10;57.90;;;;;;5109348;27;20224;-71
2022/01/03 19:22:47;;;;;;;15.75;4.80;;;20.20;58.00;;;;;;5127025;27;20490;-71
2022/01/03 19:25:13;;;;;;;15.23;4.40;;;20.20;57.90;;;;;;5106136;27;20047;-71
2022/01/03 19:27:38;;;;;;;16.70;4.95;;;20.10;57.90;;;;;;5107218;27;20051;-72
2022/01/03 19:30:05;;;;;;;17.08;4.20;;;20.10;57.80;;;;;;5122976;27;20118;-72
2022/01/03 19:32:50;;;;;;;18.85;4.82;;;20.10;57.80;;;;;;5108659;27;20039;-72
2022/01/03 19:38:00;;;;;;;14.18;4.22;;;20.10;57.80;;;;;;5108341;27;20054;-72
2022/01/03 19:40:30;;;;;;;18.20;4.07;;;20.10;57.80;;;;;;5105792;27;20367;-72
2022/01/03 19:42:58;;;;;;;17.20;4.30;;;20.10;57.80;;;;;;5121523;27;20043;-72
2022/01/03 19:45:24;;;;;;;14.18;4.25;;;20.10;57.90;;;;;;5104256;27;20061;-72
2022/01/03 19:47:50;;;;;;;15.38;4.28;;;20.10;57.90;;;;;;5122152;27;20067;-73
2022/01/03 19:50:16;;;;;;;12.45;4.32;;;20.10;57.90;;;;;;5125216;27;20038;-73
2022/01/03 19:52:42;;;;;;;12.50;3.78;;;20.10;57.90;;;;;;5105094;27;20030;-69
2022/01/03 19:55:08;;;;;;;14.07;3.58;;;20.10;57.90;;;;;;5125139;27;21005;-72
2022/01/03 19:57:34;;;;;;;11.10;4.18;;;20.10;57.90;;;;;;5107948;27;20055;-73
2022/01/03 20:00:00;;;;;;;15.98;3.60;;;20.10;57.90;;;;;;5106027;27;20079;-72
2022/01/03 20:02:26;;;;;;;16.70;3.75;;;20.10;57.90;;;;;;5107985;27;20199;-72
2022/01/03 20:04:53;;;;;;;13.35;3.78;;;20.10;57.90;;;;;;5107551;27;20450;-72
2022/01/03 20:07:20;;;;;;;18.25;4.50;;;20.10;57.90;;;;;;5126855;27;20051;-71
2022/01/03 20:09:47;;;;;;;12.43;3.63;;;20.10;57.90;;;;;;5126859;27;20053;-72
2022/01/03 20:12:12;;;;;;;14.32;3.83;;;20.10;57.90;;;;;;5125029;27;20140;-73
2022/01/03 20:14:38;;;;;;;13.15;3.70;;;20.10;57.90;;;;;;5123410;27;20149;-73
2022/01/03 20:17:04;;;;;;;13.77;3.65;;;20.10;58.00;;;;;;5124180;27;20581;-72
2022/01/03 20:19:30;;;;;;;13.43;3.22;;;20.00;57.90;;;;;;5107368;27;20054;-72
2022/01/03 20:21:56;;;;;;;13.18;3.40;;;20.00;57.90;;;;;;5125153;27;20039;-72
2022/01/03 20:24:24;;;;;;;12.15;3.10;;;20.10;58.00;;;;;;5108316;27;20047;-70
2022/01/03 20:26:50;;;;;;;;;;;20.10;58.00;;;;;;5089489;27;20050;-72
2022/01/03 20:29:16;;;;;;;12.35;3.38;;;20.00;57.80;;;;;;5126350;27;19923;-72
2022/01/03 20:31:42;;;;;;;12.77;3.15;;;20.00;58.00;;;;;;5106988;27;20482;-71
2022/01/03 20:34:07;;;;;;;12.82;3.17;;;20.00;57.90;;;;;;5090774;27;20073;-71
2022/01/03 20:36:33;;;;;;;12.65;3.35;;;20.10;57.90;;;;;;5125885;27;20080;-73
2022/01/03 20:38:58;;;;;;;10.45;3.13;;;20.10;57.90;;;;;;5106538;27;20117;-72
2022/01/03 20:41:24;;;;;;;11.15;3.10;;;20.10;57.90;;;;;;5107504;27;20512;-72
2022/01/03 20:43:49;;;;;;;12.07;3.20;;;20.10;58.60;;;;;;5123050;27;20149;-71
2022/01/03 20:46:15;;;;;;;11.23;3.15;;;20.10;57.80;;;;;;5123005;27;20038;-71
2022/01/03 20:48:44;;;;;;;8.45;3.00;;;20.10;57.80;;;;;;5122670;27;20077;-71
2022/01/03 20:51:11;;;;;;;12.63;3.28;;;20.10;57.80;;;;;;5124958;27;20067;-71
2022/01/03 20:53:36;;;;;;;11.40;2.78;;;20.10;57.70;;;;;;5125685;27;20041;-70
2022/01/03 20:56:02;;;;;;;10.20;2.80;;;20.10;57.70;;;;;;5121851;27;20401;-71
2022/01/03 20:58:27;;;;;;;8.82;2.78;;;20.10;57.60;;;;;;5124286;27;20100;-73
2022/01/03 21:00:53;;;;;;;10.15;3.40;;;20.10;57.60;;;;;;5102280;27;20041;-72
2022/01/03 21:03:19;;;;;;;10.27;3.25;;;20.10;57.60;;;;;;5123348;27;20846;-72
2022/01/03 21:05:45;;;;;;;10.35;3.05;;;20.10;57.60;;;;;;5088071;27;20157;-72
2022/01/03 21:08:11;;;;;;;7.18;2.22;;;20.10;57.60;;;;;;5123834;27;20051;-71
2022/01/03 21:10:39;;;;;;;11.23;2.70;;;20.10;57.60;;;;;;5126893;27;20543;-70
2022/01/03 21:13:09;;;;;;;10.25;2.97;;;20.10;57.60;;;;;;5106655;27;20395;-70
2022/01/03 21:15:35;;;;;;;7.53;2.53;;;20.10;57.50;;;;;;5125589;27;20532;-71
2022/01/03 21:18:02;;;;;;;9.73;2.20;;;20.10;57.50;;;;;;5122551;27;20092;-72
2022/01/03 21:20:28;;;;;;;8.88;2.45;;;20.10;57.50;;;;;;5125430;27;20155;-74
2022/01/03 21:22:53;;;;;;;11.70;2.80;;;20.10;57.50;;;;;;5123383;27;20134;-72
2022/01/03 21:25:19;;;;;;;8.95;2.40;;;20.10;57.50;;;;;;5123379;27;20084;-72
2022/01/03 21:27:44;;;;;;;10.65;2.30;;;20.10;57.50;;;;;;5123906;27;20039;-71
2022/01/03 21:30:10;;;;;;;7.82;2.28;;;20.10;57.50;;;;;;5128272;27;20061;-72
2022/01/03 21:32:36;;;;;;;7.90;2.38;;;20.10;57.50;;;;;;5126080;27;20035;-71
2022/01/03 21:35:06;;;;;;;9.05;2.28;;;20.10;57.40;;;;;;5112609;27;20045;-72
2022/01/03 21:37:32;;;;;;;7.15;2.17;;;20.10;57.40;;;;;;5127537;27;20582;-71
2022/01/03 21:39:58;;;;;;;10.02;2.72;;;20.10;57.40;;;;;;5125445;27;20035;-71
2022/01/03 21:42:24;;;;;;;5.07;2.20;;;20.10;57.40;;;;;;5128645;27;20031;-72
2022/01/03 21:44:49;;;;;;;7.80;2.25;;;20.10;57.50;;;;;;5129107;27;20571;-71
2022/01/03 21:47:15;;;;;;;11.88;2.47;;;20.10;57.40;;;;;;5127613;27;20131;-73
2022/01/03 21:49:40;;;;;;;9.82;2.35;;;20.10;57.40;;;;;;5109344;27;20027;-73
2022/01/03 21:52:06;;;;;;;8.52;2.17;;;20.10;57.40;;;;;;5127764;27;20502;-71
2022/01/03 21:54:32;;;;;;;10.40;2.25;;;20.10;57.40;;;;;;5128963;27;20097;-72
2022/01/03 21:56:57;;;;;;;9.38;2.03;;;20.10;57.40;;;;;;5110883;27;20035;-71
2022/01/03 21:59:24;;;;;;;10.07;2.35;;;20.10;57.40;;;;;;5129036;27;20481;-72
2022/01/03 22:01:52;;;;;;;8.88;2.22;;;20.10;57.40;;;;;;5127881;27;20039;-73
2022/01/03 22:04:19;;;;;;;6.95;2.15;;;20.10;57.50;;;;;;5128594;27;20074;-73
2022/01/03 22:06:44;;;;;;;6.97;2.00;;;20.10;57.50;;;;;;5128017;27;20055;-73
2022/01/03 22:09:10;;;;;;;7.78;1.88;;;20.10;57.50;;;;;;5129431;27;20155;-72
2022/01/03 22:11:35;;;;;;;6.03;1.80;;;20.10;57.50;;;;;;5127122;27;20039;-72
2022/01/03 22:14:01;;;;;;;7.03;2.33;;;20.10;58.20;;;;;;5127114;27;20525;-72
2022/01/03 22:16:26;;;;;;;6.70;2.05;;;20.10;57.40;;;;;;5109687;27;20039;-72
2022/01/03 22:18:52;;;;;;;7.95;2.00;;;20.10;57.40;;;;;;5124741;27;20413;-72
2022/01/03 22:21:18;;;;;;;8.60;2.08;;;20.10;57.40;;;;;;5126157;27;20518;-70
2022/01/03 22:23:43;;;;;;;6.82;2.08;;;20.10;57.40;;;;;;5126513;27;20092;-72
2022/01/03 22:26:09;;;;;;;8.10;2.10;;;20.10;57.30;;;;;;5127612;27;20035;-72
2022/01/03 22:28:34;;;;;;;7.65;2.00;;;20.10;57.30;;;;;;5125457;27;20084;-73
2022/01/03 22:31:00;;;;;;;6.93;1.90;;;20.10;57.30;;;;;;5108341;27;20039;-72
2022/01/03 22:33:26;;;;;;;7.07;1.83;;;20.10;57.30;;;;;;5123080;27;21949;-73
2022/01/03 22:35:51;;;;;;;7.85;2.10;;;20.10;57.30;;;;;;5108088;27;20035;-74
2022/01/03 22:38:17;;;;;;;6.72;1.50;;;20.10;57.30;;;;;;5110682;27;20066;-72
2022/01/03 22:40:42;;;;;;;5.88;1.85;;;20.10;57.30;;;;;;5125173;27;20513;-75
2022/01/03 22:43:08;;;;;;;6.32;1.80;;;20.10;57.30;;;;;;5128202;27;20043;-72
2022/01/03 22:45:34;;;;;;;10.15;2.22;;;20.10;57.30;;;;;;5108109;27;20036;-73
2022/01/03 22:48:00;;;;;;;6.55;1.73;;;20.10;57.30;;;;;;5109636;27;20043;-71
2022/01/03 22:50:26;;;;;;;6.28;1.80;;;20.10;57.30;;;;;;5121479;27;20082;-72
2022/01/03 22:52:52;;;;;;;5.15;1.60;;;20.10;57.20;;;;;;5125042;27;20035;-72
2022/01/03 22:55:17;;;;;;;6.10;1.63;;;20.10;57.10;;;;;;5107609;27;20509;-72
2022/01/03 22:57:43;;;;;;;5.70;2.08;;;20.10;57.20;;;;;;5107307;27;20138;-73
2022/01/03 23:00:15;;;;;;;5.75;1.67;;;20.10;57.10;;;;;;5124339;27;20065;-74
2022/01/03 23:02:41;;;;;;;6.80;1.90;;;20.10;57.10;;;;;;5122210;27;20575;-71
2022/01/03 23:05:07;;;;;;;5.07;1.85;;;20.20;57.20;;;;;;5108225;27;20035;-74
2022/01/03 23:07:33;;;;;;;5.38;1.48;;;20.20;57.10;;;;;;5126807;27;20059;-74
2022/01/03 23:09:58;;;;;;;6.93;1.80;;;20.20;57.10;;;;;;5122306;27;20046;-74
2022/01/03 23:12:24;;;;;;;5.78;1.70;;;20.20;57.10;;;;;;5130301;27;20027;-72
2022/01/03 23:14:49;;;;;;;7.95;2.00;;;20.20;57.10;;;;;;5123037;27;20035;-71
2022/01/03 23:17:15;;;;;;;3.78;1.42;;;20.20;57.00;;;;;;5126425;27;20035;-72
2022/01/03 23:19:40;;;;;;;5.75;1.55;;;20.20;57.10;;;;;;5125898;27;20081;-73
2022/01/03 23:22:06;;;;;;;5.63;1.60;;;20.20;57.00;;;;;;5123023;27;20080;-72
2022/01/03 23:24:32;;;;;;;6.43;1.70;;;20.20;56.90;;;;;;5124085;27;20081;-70
2022/01/03 23:26:57;;;;;;;7.72;1.83;;;20.20;56.90;;;;;;5124631;27;20375;-74
2022/01/03 23:29:23;;;;;;;5.90;1.63;;;20.20;56.90;;;;;;5126780;27;20108;-76
2022/01/03 23:31:49;;;;;;;5.05;1.83;;;20.20;56.90;;;;;;5089902;27;20579;-72
2022/01/03 23:34:20;;;;;;;6.95;1.58;;;20.30;57.00;;;;;;5107488;27;20061;-72
2022/01/03 23:36:47;;;;;;;5.75;1.80;;;20.20;56.90;;;;;;5120218;27;20043;-70
2022/01/03 23:39:13;;;;;;;6.35;1.73;;;20.20;56.90;;;;;;5126506;27;20039;-75
2022/01/03 23:41:38;;;;;;;7.55;1.73;;;20.20;56.90;;;;;;5103927;27;20046;-71
2022/01/03 23:44:05;;;;;;;7.10;1.73;;;20.20;56.90;;;;;;5128842;27;20417;-72
2022/01/03 23:46:30;;;;;;;8.90;1.38;;;20.20;56.80;;;;;;5125808;27;20036;-74
2022/01/03 23:48:56;;;;;;;6.03;1.60;;;20.20;56.80;;;;;;5125492;27;21203;-72
2022/01/03 23:51:21;;;;;;;5.15;1.48;;;20.20;56.80;;;;;;5102508;27;20043;-73
2022/01/03 23:53:47;;;;;;;9.57;1.60;;;20.20;57.50;;;;;;5125191;27;20039;-71
2022/01/03 23:56:12;;;;;;;5.10;1.30;;;20.10;56.70;;;;;;5126468;27;20034;-73
2022/01/03 23:58:38;;;;;;;7.05;1.63;;;20.10;56.60;;;;;;5125200;27;20049;-71
